Hastings Municipal, NE

10:12 AM CDT on August 28, 2014 (GMT -0500)
Kearney Municipal | Change Station
CLOSE
Current Station
Airport
Location: Kearney,
Elevation: 2129 ft
Nearby Weather Stations

Elev 2129 ft 40.73 °N, 99.01 °W | Updated 17 minutes ago

Overcast
Overcast
66 °F
Feels Like 66 °F
N
10
Wind Variable Wind from West

Today
High -- | Low -- °F
--% Chance of Precip.
Yesterday
High -- | Low -- °F
Precip. -- in
6:56 AM 8:12 PM
Waxing Crescent, 8% visible
Pressure 29.94 in
Visibility 2.5 miles
Clouds Scattered Clouds 300 ft
Scattered Clouds 1000 ft
Overcast 1500 ft
Dew Point 64 °F
Humidity 94%
Rainfall 1.13 in
Snow Depth Not available.
UV 1 out of 12
Pollen 2.10 out of 12
Air Quality Not available.
Flu Activity Not available.
METAR KEAR 281455Z AUTO 28009KT 2 1/2SM SCT003 SCT010 OVC015 19/18 A2994 RMK AO1 52014

More Conditions Fewer Conditions

Pressure 29.94 in
Visibility 2.5 miles
Clouds Scattered Clouds 300 ft
Scattered Clouds 1000 ft
Overcast 1500 ft
Dew Point 64 °F
Humidity 94%
Rainfall 1.13 in
Snow Depth Not available.
UV 1 out of 12
Pollen 2.10 out of 12
Air Quality Not available.
Flu Activity Not available.
METAR KEAR 281455Z AUTO 28009KT 2 1/2SM SCT003 SCT010 OVC015 19/18 A2994 RMK AO1 52014

More Conditions Fewer Conditions

10-Day Weather Forecast

Almanac

Astronomy

Aug. 28, 2014 Rise Set
Actual Time 6:56 AM CDT 8:12 PM CDT
Civil Twilight 6:28 AM CDT 8:40 PM CDT
Nautical Twilight 5:54 AM CDT 9:14 PM CDT
Astronomical Twilight 5:19 AM CDT 9:49 PM CDT
Moon 9:51 AM CDT 9:35 PM CDT
Length of Visible Light 14h 11m
Length of Day
13h 15m
Tomorrow will be 2m 32s shorter.
Waxing Crescent, 8% of the Moon is Illuminated
Today
Waxing Crescent
Sep 2
First Quarter
Sep 8
Full
Sep 15
Last Quarter
Sep 24
New

Today's Extremes

State Highs State Lows

Community

WunderPhotos

Upload Photos

1,747,982 photos uploaded!

Nearby

Snow Depth

Station Depth Elevation
No new snow has been reported.

Earthquake Activity

City Distance Mag. Time & Date
No recent earthquake activity has been reported nearby.
Minimum magnitude displayed is 2.5.

Coastal Water Temperatures

Place Temperature
No Stations Reporting

Nearby Weather Stations